sensor_id;sensor_type;location;lat;lon;timestamp;P1;durP1;ratioP1;P2;durP2;ratioP2
59555;SDS011;45374;52.746;6.304;2023-04-24T00:02:17;2.20;;;2.00;;
59555;SDS011;45374;52.746;6.304;2023-04-24T00:04:43;2.33;;;2.13;;
59555;SDS011;45374;52.746;6.304;2023-04-24T00:07:12;4.85;;;2.53;;
59555;SDS011;45374;52.746;6.304;2023-04-24T00:09:38;3.38;;;2.20;;
59555;SDS011;45374;52.746;6.304;2023-04-24T00:12:03;3.40;;;2.13;;
59555;SDS011;45374;52.746;6.304;2023-04-24T00:14:30;4.20;;;2.60;;
59555;SDS011;45374;52.746;6.304;2023-04-24T00:16:56;3.45;;;2.70;;
59555;SDS011;45374;52.746;6.304;2023-04-24T00:19:22;2.90;;;2.60;;
59555;SDS011;45374;52.746;6.304;2023-04-24T00:21:47;5.00;;;3.20;;
59555;SDS011;45374;52.746;6.304;2023-04-24T00:24:15;3.10;;;2.80;;
59555;SDS011;45374;52.746;6.304;2023-04-24T00:26:41;3.50;;;2.92;;
59555;SDS011;45374;52.746;6.304;2023-04-24T00:29:07;3.33;;;3.03;;
59555;SDS011;45374;52.746;6.304;2023-04-24T00:31:32;3.60;;;2.95;;
59555;SDS011;45374;52.746;6.304;2023-04-24T00:34:00;3.30;;;2.92;;
59555;SDS011;45374;52.746;6.304;2023-04-24T00:36:26;4.60;;;2.88;;
59555;SDS011;45374;52.746;6.304;2023-04-24T00:38:52;3.78;;;2.97;;
59555;SDS011;45374;52.746;6.304;2023-04-24T00:41:18;3.42;;;2.92;;
59555;SDS011;45374;52.746;6.304;2023-04-24T00:43:44;4.28;;;2.97;;
59555;SDS011;45374;52.746;6.304;2023-04-24T00:46:10;4.05;;;2.97;;
59555;SDS011;45374;52.746;6.304;2023-04-24T00:48:38;4.25;;;3.25;;
59555;SDS011;45374;52.746;6.304;2023-04-24T00:51:04;4.97;;;3.45;;
59555;SDS011;45374;52.746;6.304;2023-04-24T00:53:29;6.40;;;3.70;;
59555;SDS011;45374;52.746;6.304;2023-04-24T00:55:55;4.72;;;3.78;;
59555;SDS011;45374;52.746;6.304;2023-04-24T00:58:21;4.32;;;3.90;;
59555;SDS011;45374;52.746;6.304;2023-04-24T01:00:48;5.57;;;4.03;;
59555;SDS011;45374;52.746;6.304;2023-04-24T01:03:14;5.72;;;4.15;;
59555;SDS011;45374;52.746;6.304;2023-04-24T01:05:40;8.13;;;4.68;;
59555;SDS011;45374;52.746;6.304;2023-04-24T01:08:06;6.55;;;5.32;;
59555;SDS011;45374;52.746;6.304;2023-04-24T01:10:32;5.93;;;4.47;;
59555;SDS011;45374;52.746;6.304;2023-04-24T01:12:59;7.57;;;5.07;;
59555;SDS011;45374;52.746;6.304;2023-04-24T01:15:25;6.20;;;5.20;;
59555;SDS011;45374;52.746;6.304;2023-04-24T01:17:51;5.65;;;5.00;;
59555;SDS011;45374;52.746;6.304;2023-04-24T01:20:16;5.70;;;4.75;;
59555;SDS011;45374;52.746;6.304;2023-04-24T01:22:42;5.82;;;4.95;;
59555;SDS011;45374;52.746;6.304;2023-04-24T01:25:08;5.20;;;4.32;;
59555;SDS011;45374;52.746;6.304;2023-04-24T01:27:34;6.00;;;4.60;;
59555;SDS011;45374;52.746;6.304;2023-04-24T01:29:59;6.28;;;4.40;;
59555;SDS011;45374;52.746;6.304;2023-04-24T01:32:25;5.45;;;4.45;;
59555;SDS011;45374;52.746;6.304;2023-04-24T01:34:51;5.35;;;4.70;;
59555;SDS011;45374;52.746;6.304;2023-04-24T01:37:17;8.07;;;6.38;;
59555;SDS011;45374;52.746;6.304;2023-04-24T01:39:43;7.72;;;6.78;;
59555;SDS011;45374;52.746;6.304;2023-04-24T01:42:09;8.95;;;6.95;;
59555;SDS011;45374;52.746;6.304;2023-04-24T01:44:35;7.93;;;7.13;;
59555;SDS011;45374;52.746;6.304;2023-04-24T01:47:00;7.45;;;6.72;;
59555;SDS011;45374;52.746;6.304;2023-04-24T01:49:26;6.65;;;5.97;;
59555;SDS011;45374;52.746;6.304;2023-04-24T01:51:52;7.15;;;6.45;;
59555;SDS011;45374;52.746;6.304;2023-04-24T01:54:17;7.13;;;6.43;;
59555;SDS011;45374;52.746;6.304;2023-04-24T01:56:43;6.47;;;5.88;;
59555;SDS011;45374;52.746;6.304;2023-04-24T01:59:10;8.15;;;6.20;;
59555;SDS011;45374;52.746;6.304;2023-04-24T02:01:36;6.95;;;6.28;;
59555;SDS011;45374;52.746;6.304;2023-04-24T02:04:02;6.43;;;5.82;;
59555;SDS011;45374;52.746;6.304;2023-04-24T02:06:28;6.35;;;5.70;;
59555;SDS011;45374;52.746;6.304;2023-04-24T02:08:56;6.53;;;5.80;;
59555;SDS011;45374;52.746;6.304;2023-04-24T02:11:23;6.07;;;5.38;;
59555;SDS011;45374;52.746;6.304;2023-04-24T02:13:49;5.95;;;5.35;;
59555;SDS011;45374;52.746;6.304;2023-04-24T02:16:15;5.95;;;5.28;;
59555;SDS011;45374;52.746;6.304;2023-04-24T02:18:41;7.68;;;5.25;;
59555;SDS011;45374;52.746;6.304;2023-04-24T02:21:06;6.22;;;5.13;;
59555;SDS011;45374;52.746;6.304;2023-04-24T02:23:32;6.45;;;5.13;;
59555;SDS011;45374;52.746;6.304;2023-04-24T02:25:57;6.03;;;4.60;;
59555;SDS011;45374;52.746;6.304;2023-04-24T02:28:23;5.82;;;4.43;;
59555;SDS011;45374;52.746;6.304;2023-04-24T02:30:49;5.00;;;4.20;;
59555;SDS011;45374;52.746;6.304;2023-04-24T02:33:15;5.15;;;3.88;;
59555;SDS011;45374;52.746;6.304;2023-04-24T02:35:41;4.57;;;3.95;;
59555;SDS011;45374;52.746;6.304;2023-04-24T02:38:06;3.90;;;3.40;;
59555;SDS011;45374;52.746;6.304;2023-04-24T02:40:32;4.93;;;3.40;;
59555;SDS011;45374;52.746;6.304;2023-04-24T02:42:57;4.07;;;3.17;;
59555;SDS011;45374;52.746;6.304;2023-04-24T02:45:23;2.97;;;2.67;;
59555;SDS011;45374;52.746;6.304;2023-04-24T02:47:48;3.25;;;2.80;;
59555;SDS011;45374;52.746;6.304;2023-04-24T02:50:14;3.45;;;2.67;;
59555;SDS011;45374;52.746;6.304;2023-04-24T02:52:39;2.90;;;2.40;;
59555;SDS011;45374;52.746;6.304;2023-04-24T02:55:05;3.08;;;2.70;;
59555;SDS011;45374;52.746;6.304;2023-04-24T02:57:32;3.20;;;2.63;;
59555;SDS011;45374;52.746;6.304;2023-04-24T02:59:58;4.63;;;2.92;;
59555;SDS011;45374;52.746;6.304;2023-04-24T03:02:24;3.28;;;2.92;;
59555;SDS011;45374;52.746;6.304;2023-04-24T03:04:50;3.53;;;3.20;;
59555;SDS011;45374;52.746;6.304;2023-04-24T03:07:15;4.97;;;3.40;;
59555;SDS011;45374;52.746;6.304;2023-04-24T03:09:41;4.47;;;3.50;;
59555;SDS011;45374;52.746;6.304;2023-04-24T03:12:06;5.82;;;3.42;;
59555;SDS011;45374;52.746;6.304;2023-04-24T03:14:32;3.47;;;3.17;;
59555;SDS011;45374;52.746;6.304;2023-04-24T03:16:58;3.53;;;3.22;;
59555;SDS011;45374;52.746;6.304;2023-04-24T03:19:24;4.78;;;2.97;;
59555;SDS011;45374;52.746;6.304;2023-04-24T03:21:49;2.92;;;2.67;;
59555;SDS011;45374;52.746;6.304;2023-04-24T03:24:15;3.55;;;2.40;;
59555;SDS011;45374;52.746;6.304;2023-04-24T03:26:40;2.60;;;2.40;;
59555;SDS011;45374;52.746;6.304;2023-04-24T03:29:06;2.58;;;2.08;;
59555;SDS011;45374;52.746;6.304;2023-04-24T03:31:32;2.30;;;2.10;;
59555;SDS011;45374;52.746;6.304;2023-04-24T03:33:57;2.20;;;2.00;;
59555;SDS011;45374;52.746;6.304;2023-04-24T03:36:23;5.13;;;2.40;;
59555;SDS011;45374;52.746;6.304;2023-04-24T03:38:48;2.53;;;1.88;;
59555;SDS011;45374;52.746;6.304;2023-04-24T03:41:14;2.80;;;1.67;;
59555;SDS011;45374;52.746;6.304;2023-04-24T03:43:39;1.42;;;1.30;;
59555;SDS011;45374;52.746;6.304;2023-04-24T03:46:05;1.17;;;1.05;;
59555;SDS011;45374;52.746;6.304;2023-04-24T03:48:30;1.48;;;1.20;;
59555;SDS011;45374;52.746;6.304;2023-04-24T03:50:56;1.20;;;1.10;;
59555;SDS011;45374;52.746;6.304;2023-04-24T03:53:22;1.00;;;0.90;;
59555;SDS011;45374;52.746;6.304;2023-04-24T03:55:47;2.58;;;0.90;;
59555;SDS011;45374;52.746;6.304;2023-04-24T03:58:13;1.50;;;0.90;;
59555;SDS011;45374;52.746;6.304;2023-04-24T04:00:39;1.25;;;1.00;;
59555;SDS011;45374;52.746;6.304;2023-04-24T04:03:05;1.33;;;0.90;;
59555;SDS011;45374;52.746;6.304;2023-04-24T04:05:31;0.98;;;0.90;;
59555;SDS011;45374;52.746;6.304;2023-04-24T04:07:56;1.52;;;1.27;;
59555;SDS011;45374;52.746;6.304;2023-04-24T04:10:22;1.08;;;0.95;;
59555;SDS011;45374;52.746;6.304;2023-04-24T04:12:48;1.70;;;1.10;;
59555;SDS011;45374;52.746;6.304;2023-04-24T04:15:13;3.70;;;1.30;;
59555;SDS011;45374;52.746;6.304;2023-04-24T04:17:39;2.95;;;1.58;;
59555;SDS011;45374;52.746;6.304;2023-04-24T04:20:05;3.08;;;1.70;;
59555;SDS011;45374;52.746;6.304;2023-04-24T04:22:34;2.15;;;1.45;;
59555;SDS011;45374;52.746;6.304;2023-04-24T04:25:00;2.92;;;1.77;;
59555;SDS011;45374;52.746;6.304;2023-04-24T04:27:26;1.90;;;1.70;;
59555;SDS011;45374;52.746;6.304;2023-04-24T04:29:53;2.10;;;1.70;;
59555;SDS011;45374;52.746;6.304;2023-04-24T04:32:18;2.38;;;1.80;;
59555;SDS011;45374;52.746;6.304;2023-04-24T04:34:44;3.00;;;1.67;;
59555;SDS011;45374;52.746;6.304;2023-04-24T04:37:10;2.08;;;1.60;;
59555;SDS011;45374;52.746;6.304;2023-04-24T04:39:37;2.13;;;1.40;;
59555;SDS011;45374;52.746;6.304;2023-04-24T04:42:03;1.83;;;1.63;;
59555;SDS011;45374;52.746;6.304;2023-04-24T04:44:29;3.90;;;1.80;;
59555;SDS011;45374;52.746;6.304;2023-04-24T04:46:55;2.10;;;1.90;;
59555;SDS011;45374;52.746;6.304;2023-04-24T04:49:21;3.03;;;2.10;;
59555;SDS011;45374;52.746;6.304;2023-04-24T04:51:48;3.15;;;2.15;;
59555;SDS011;45374;52.746;6.304;2023-04-24T04:54:15;3.67;;;2.20;;
59555;SDS011;45374;52.746;6.304;2023-04-24T04:56:41;3.97;;;2.60;;
59555;SDS011;45374;52.746;6.304;2023-04-24T04:59:07;5.20;;;3.50;;
59555;SDS011;45374;52.746;6.304;2023-04-24T05:01:32;5.30;;;3.05;;
59555;SDS011;45374;52.746;6.304;2023-04-24T05:03:58;5.65;;;3.10;;
59555;SDS011;45374;52.746;6.304;2023-04-24T05:06:23;2.90;;;2.22;;
59555;SDS011;45374;52.746;6.304;2023-04-24T05:08:50;4.47;;;3.33;;
59555;SDS011;45374;52.746;6.304;2023-04-24T05:11:16;7.22;;;4.03;;
59555;SDS011;45374;52.746;6.304;2023-04-24T05:13:41;11.18;;;4.95;;
59555;SDS011;45374;52.746;6.304;2023-04-24T05:16:07;10.60;;;6.68;;
59555;SDS011;45374;52.746;6.304;2023-04-24T05:18:32;13.70;;;7.47;;
59555;SDS011;45374;52.746;6.304;2023-04-24T05:20:58;8.55;;;4.85;;
59555;SDS011;45374;52.746;6.304;2023-04-24T05:23:24;6.65;;;3.30;;
59555;SDS011;45374;52.746;6.304;2023-04-24T05:25:50;5.85;;;3.60;;
59555;SDS011;45374;52.746;6.304;2023-04-24T05:28:15;8.27;;;3.20;;
59555;SDS011;45374;52.746;6.304;2023-04-24T05:30:41;5.68;;;2.83;;
59555;SDS011;45374;52.746;6.304;2023-04-24T05:33:06;5.22;;;3.13;;
59555;SDS011;45374;52.746;6.304;2023-04-24T05:35:33;9.30;;;4.90;;
59555;SDS011;45374;52.746;6.304;2023-04-24T05:38:00;7.18;;;4.60;;
59555;SDS011;45374;52.746;6.304;2023-04-24T05:40:25;9.40;;;5.53;;
59555;SDS011;45374;52.746;6.304;2023-04-24T05:42:51;9.15;;;5.25;;
59555;SDS011;45374;52.746;6.304;2023-04-24T05:45:16;12.32;;;6.55;;
59555;SDS011;45374;52.746;6.304;2023-04-24T05:47:45;11.60;;;6.13;;
59555;SDS011;45374;52.746;6.304;2023-04-24T05:50:11;16.40;;;7.30;;
59555;SDS011;45374;52.746;6.304;2023-04-24T05:52:37;18.13;;;7.80;;
59555;SDS011;45374;52.746;6.304;2023-04-24T05:55:02;12.98;;;6.70;;
59555;SDS011;45374;52.746;6.304;2023-04-24T05:57:28;11.75;;;5.68;;
59555;SDS011;45374;52.746;6.304;2023-04-24T05:59:53;9.18;;;5.13;;
59555;SDS011;45374;52.746;6.304;2023-04-24T06:02:19;14.45;;;6.82;;
59555;SDS011;45374;52.746;6.304;2023-04-24T06:04:45;13.05;;;7.72;;
59555;SDS011;45374;52.746;6.304;2023-04-24T06:07:10;15.13;;;7.10;;
59555;SDS011;45374;52.746;6.304;2023-04-24T06:09:36;14.32;;;6.78;;
59555;SDS011;45374;52.746;6.304;2023-04-24T06:12:02;12.60;;;6.68;;
59555;SDS011;45374;52.746;6.304;2023-04-24T06:14:27;12.52;;;5.45;;
59555;SDS011;45374;52.746;6.304;2023-04-24T06:16:53;9.65;;;5.03;;
59555;SDS011;45374;52.746;6.304;2023-04-24T06:19:18;13.23;;;6.53;;
59555;SDS011;45374;52.746;6.304;2023-04-24T06:21:44;14.55;;;7.22;;
59555;SDS011;45374;52.746;6.304;2023-04-24T06:24:10;15.15;;;7.35;;
59555;SDS011;45374;52.746;6.304;2023-04-24T06:26:35;11.38;;;5.80;;
59555;SDS011;45374;52.746;6.304;2023-04-24T06:29:01;14.73;;;6.30;;
59555;SDS011;45374;52.746;6.304;2023-04-24T06:31:27;14.60;;;7.10;;
59555;SDS011;45374;52.746;6.304;2023-04-24T06:33:52;10.35;;;6.03;;
59555;SDS011;45374;52.746;6.304;2023-04-24T06:36:18;13.75;;;6.18;;
59555;SDS011;45374;52.746;6.304;2023-04-24T06:38:43;12.18;;;6.47;;
59555;SDS011;45374;52.746;6.304;2023-04-24T06:41:09;14.13;;;7.30;;
59555;SDS011;45374;52.746;6.304;2023-04-24T06:43:35;18.92;;;7.60;;
59555;SDS011;45374;52.746;6.304;2023-04-24T06:46:01;15.38;;;7.82;;
59555;SDS011;45374;52.746;6.304;2023-04-24T06:48:28;13.18;;;7.25;;
59555;SDS011;45374;52.746;6.304;2023-04-24T06:50:54;13.52;;;7.20;;
59555;SDS011;45374;52.746;6.304;2023-04-24T06:53:19;11.80;;;6.93;;
59555;SDS011;45374;52.746;6.304;2023-04-24T06:55:45;11.75;;;6.45;;
59555;SDS011;45374;52.746;6.304;2023-04-24T06:58:11;14.93;;;7.70;;
59555;SDS011;45374;52.746;6.304;2023-04-24T07:00:36;13.98;;;6.32;;
59555;SDS011;45374;52.746;6.304;2023-04-24T07:03:02;11.13;;;6.97;;
59555;SDS011;45374;52.746;6.304;2023-04-24T07:05:30;11.05;;;5.40;;
59555;SDS011;45374;52.746;6.304;2023-04-24T07:07:56;12.70;;;7.07;;
59555;SDS011;45374;52.746;6.304;2023-04-24T07:10:23;14.00;;;7.32;;
59555;SDS011;45374;52.746;6.304;2023-04-24T07:12:49;13.35;;;6.72;;
59555;SDS011;45374;52.746;6.304;2023-04-24T07:15:15;13.93;;;6.50;;
59555;SDS011;45374;52.746;6.304;2023-04-24T07:17:41;11.73;;;6.50;;
59555;SDS011;45374;52.746;6.304;2023-04-24T07:20:09;12.68;;;6.07;;
59555;SDS011;45374;52.746;6.304;2023-04-24T07:22:36;9.95;;;4.97;;
59555;SDS011;45374;52.746;6.304;2023-04-24T07:25:02;10.55;;;5.38;;
59555;SDS011;45374;52.746;6.304;2023-04-24T07:27:28;10.38;;;5.50;;
59555;SDS011;45374;52.746;6.304;2023-04-24T07:29:54;15.82;;;7.00;;
59555;SDS011;45374;52.746;6.304;2023-04-24T07:32:19;10.35;;;6.75;;
59555;SDS011;45374;52.746;6.304;2023-04-24T07:34:45;8.50;;;4.28;;
59555;SDS011;45374;52.746;6.304;2023-04-24T07:37:10;5.07;;;3.05;;
59555;SDS011;45374;52.746;6.304;2023-04-24T07:39:36;5.65;;;3.97;;
59555;SDS011;45374;52.746;6.304;2023-04-24T07:42:02;10.60;;;3.92;;
59555;SDS011;45374;52.746;6.304;2023-04-24T07:44:28;5.78;;;2.65;;
59555;SDS011;45374;52.746;6.304;2023-04-24T07:46:54;7.75;;;3.20;;
59555;SDS011;45374;52.746;6.304;2023-04-24T07:49:20;6.53;;;2.97;;
59555;SDS011;45374;52.746;6.304;2023-04-24T07:51:46;9.80;;;3.22;;
59555;SDS011;45374;52.746;6.304;2023-04-24T07:54:12;7.13;;;3.75;;
59555;SDS011;45374;52.746;6.304;2023-04-24T07:56:37;9.48;;;4.38;;
59555;SDS011;45374;52.746;6.304;2023-04-24T07:59:04;10.95;;;6.40;;
59555;SDS011;45374;52.746;6.304;2023-04-24T08:01:30;15.70;;;7.07;;
59555;SDS011;45374;52.746;6.304;2023-04-24T08:03:55;15.10;;;7.43;;
59555;SDS011;45374;52.746;6.304;2023-04-24T08:06:21;17.52;;;8.85;;
59555;SDS011;45374;52.746;6.304;2023-04-24T08:08:47;19.23;;;10.07;;
59555;SDS011;45374;52.746;6.304;2023-04-24T08:11:12;21.48;;;10.02;;
59555;SDS011;45374;52.746;6.304;2023-04-24T08:13:38;19.95;;;9.75;;
59555;SDS011;45374;52.746;6.304;2023-04-24T08:16:04;21.42;;;9.90;;
59555;SDS011;45374;52.746;6.304;2023-04-24T08:18:29;21.10;;;11.20;;
59555;SDS011;45374;52.746;6.304;2023-04-24T08:20:55;20.90;;;10.45;;
59555;SDS011;45374;52.746;6.304;2023-04-24T08:23:26;17.25;;;9.93;;
59555;SDS011;45374;52.746;6.304;2023-04-24T08:25:51;22.17;;;9.27;;
59555;SDS011;45374;52.746;6.304;2023-04-24T08:28:17;20.75;;;8.32;;
59555;SDS011;45374;52.746;6.304;2023-04-24T08:30:45;27.20;;;14.30;;
59555;SDS011;45374;52.746;6.304;2023-04-24T08:33:12;24.67;;;13.18;;
59555;SDS011;45374;52.746;6.304;2023-04-24T08:35:37;34.17;;;15.02;;
59555;SDS011;45374;52.746;6.304;2023-04-24T08:38:03;22.83;;;11.07;;
59555;SDS011;45374;52.746;6.304;2023-04-24T08:40:29;25.90;;;13.85;;
59555;SDS011;45374;52.746;6.304;2023-04-24T08:42:59;31.75;;;14.50;;
59555;SDS011;45374;52.746;6.304;2023-04-24T08:45:25;31.75;;;14.55;;
59555;SDS011;45374;52.746;6.304;2023-04-24T08:47:52;27.42;;;12.13;;
59555;SDS011;45374;52.746;6.304;2023-04-24T08:50:19;25.23;;;11.60;;
59555;SDS011;45374;52.746;6.304;2023-04-24T08:52:47;23.15;;;11.32;;
59555;SDS011;45374;52.746;6.304;2023-04-24T08:55:14;27.52;;;12.27;;
59555;SDS011;45374;52.746;6.304;2023-04-24T08:57:43;29.08;;;14.57;;
59555;SDS011;45374;52.746;6.304;2023-04-24T09:00:10;25.77;;;12.80;;
59555;SDS011;45374;52.746;6.304;2023-04-24T09:02:38;21.67;;;12.18;;
59555;SDS011;45374;52.746;6.304;2023-04-24T09:05:06;28.33;;;13.82;;
59555;SDS011;45374;52.746;6.304;2023-04-24T09:07:33;20.27;;;10.00;;
59555;SDS011;45374;52.746;6.304;2023-04-24T09:10:01;22.67;;;10.70;;
59555;SDS011;45374;52.746;6.304;2023-04-24T09:12:27;26.65;;;13.27;;
59555;SDS011;45374;52.746;6.304;2023-04-24T09:14:53;24.95;;;14.73;;
59555;SDS011;45374;52.746;6.304;2023-04-24T09:17:20;27.77;;;13.27;;
59555;SDS011;45374;52.746;6.304;2023-04-24T09:19:47;29.75;;;14.55;;
59555;SDS011;45374;52.746;6.304;2023-04-24T09:22:14;31.77;;;12.57;;
59555;SDS011;45374;52.746;6.304;2023-04-24T09:24:40;22.23;;;11.63;;
59555;SDS011;45374;52.746;6.304;2023-04-24T09:27:06;22.52;;;11.65;;
59555;SDS011;45374;52.746;6.304;2023-04-24T09:29:32;26.25;;;11.75;;
59555;SDS011;45374;52.746;6.304;2023-04-24T09:31:58;21.98;;;10.02;;
59555;SDS011;45374;52.746;6.304;2023-04-24T09:34:25;17.15;;;7.50;;
59555;SDS011;45374;52.746;6.304;2023-04-24T09:36:52;14.52;;;6.97;;
59555;SDS011;45374;52.746;6.304;2023-04-24T09:39:18;18.63;;;7.60;;
59555;SDS011;45374;52.746;6.304;2023-04-24T09:41:54;14.73;;;7.18;;
59555;SDS011;45374;52.746;6.304;2023-04-24T09:44:22;16.65;;;9.00;;
59555;SDS011;45374;52.746;6.304;2023-04-24T09:46:51;15.88;;;7.15;;
59555;SDS011;45374;52.746;6.304;2023-04-24T09:51:50;10.13;;;5.60;;
59555;SDS011;45374;52.746;6.304;2023-04-24T09:54:17;10.38;;;4.43;;
59555;SDS011;45374;52.746;6.304;2023-04-24T09:56:46;14.57;;;6.38;;
59555;SDS011;45374;52.746;6.304;2023-04-24T09:59:13;12.55;;;5.90;;
59555;SDS011;45374;52.746;6.304;2023-04-24T10:01:40;16.35;;;7.10;;
59555;SDS011;45374;52.746;6.304;2023-04-24T10:04:19;13.27;;;5.80;;
59555;SDS011;45374;52.746;6.304;2023-04-24T10:06:47;12.07;;;4.22;;
59555;SDS011;45374;52.746;6.304;2023-04-24T10:09:14;8.88;;;4.07;;
59555;SDS011;45374;52.746;6.304;2023-04-24T10:11:41;8.40;;;3.67;;
59555;SDS011;45374;52.746;6.304;2023-04-24T10:14:15;9.30;;;3.03;;
59555;SDS011;45374;52.746;6.304;2023-04-24T10:16:53;11.30;;;3.38;;
59555;SDS011;45374;52.746;6.304;2023-04-24T10:19:20;12.38;;;3.42;;
59555;SDS011;45374;52.746;6.304;2023-04-24T10:21:45;11.15;;;2.97;;
59555;SDS011;45374;52.746;6.304;2023-04-24T10:24:15;9.32;;;2.70;;
59555;SDS011;45374;52.746;6.304;2023-04-24T10:26:42;8.32;;;3.40;;
59555;SDS011;45374;52.746;6.304;2023-04-24T10:29:11;8.32;;;3.05;;
59555;SDS011;45374;52.746;6.304;2023-04-24T10:31:38;9.40;;;3.35;;
59555;SDS011;45374;52.746;6.304;2023-04-24T10:34:04;9.57;;;3.80;;
59555;SDS011;45374;52.746;6.304;2023-04-24T10:36:31;11.88;;;4.07;;
59555;SDS011;45374;52.746;6.304;2023-04-24T10:38:59;8.98;;;3.15;;
59555;SDS011;45374;52.746;6.304;2023-04-24T10:41:27;12.00;;;4.40;;
59555;SDS011;45374;52.746;6.304;2023-04-24T10:44:05;10.00;;;3.60;;
59555;SDS011;45374;52.746;6.304;2023-04-24T10:49:07;10.63;;;3.15;;
59555;SDS011;45374;52.746;6.304;2023-04-24T10:51:46;12.38;;;3.60;;
59555;SDS011;45374;52.746;6.304;2023-04-24T10:56:51;14.80;;;3.20;;
59555;SDS011;45374;52.746;6.304;2023-04-24T10:59:24;11.88;;;3.45;;
59555;SDS011;45374;52.746;6.304;2023-04-24T11:01:54;10.23;;;3.00;;
59555;SDS011;45374;52.746;6.304;2023-04-24T11:04:29;13.07;;;3.20;;
59555;SDS011;45374;52.746;6.304;2023-04-24T11:06:56;16.05;;;2.97;;
59555;SDS011;45374;52.746;6.304;2023-04-24T11:09:22;14.32;;;3.50;;
59555;SDS011;45374;52.746;6.304;2023-04-24T11:11:53;19.90;;;3.40;;
59555;SDS011;45374;52.746;6.304;2023-04-24T11:17:33;13.63;;;2.92;;
59555;SDS011;45374;52.746;6.304;2023-04-24T11:22:34;10.60;;;2.88;;
59555;SDS011;45374;52.746;6.304;2023-04-24T11:25:01;10.63;;;2.60;;
59555;SDS011;45374;52.746;6.304;2023-04-24T11:27:32;7.25;;;2.30;;
59555;SDS011;45374;52.746;6.304;2023-04-24T11:30:08;5.68;;;2.53;;
59555;SDS011;45374;52.746;6.304;2023-04-24T11:32:36;6.78;;;2.50;;
59555;SDS011;45374;52.746;6.304;2023-04-24T11:37:42;6.13;;;2.45;;
59555;SDS011;45374;52.746;6.304;2023-04-24T11:45:21;6.18;;;2.50;;
59555;SDS011;45374;52.746;6.304;2023-04-24T11:47:47;14.00;;;2.80;;
59555;SDS011;45374;52.746;6.304;2023-04-24T11:50:14;13.00;;;2.58;;
59555;SDS011;45374;52.746;6.304;2023-04-24T11:52:41;11.70;;;3.00;;
59555;SDS011;45374;52.746;6.304;2023-04-24T11:57:44;8.82;;;2.95;;
59555;SDS011;45374;52.746;6.304;2023-04-24T12:00:17;6.45;;;2.75;;
59555;SDS011;45374;52.746;6.304;2023-04-24T12:02:47;10.02;;;3.35;;
59555;SDS011;45374;52.746;6.304;2023-04-24T12:10:13;7.32;;;2.20;;
59555;SDS011;45374;52.746;6.304;2023-04-24T12:12:39;7.60;;;2.15;;
59555;SDS011;45374;52.746;6.304;2023-04-24T12:15:08;8.23;;;1.98;;
59555;SDS011;45374;52.746;6.304;2023-04-24T12:17:35;5.38;;;2.10;;
59555;SDS011;45374;52.746;6.304;2023-04-24T12:20:05;3.47;;;1.50;;
59555;SDS011;45374;52.746;6.304;2023-04-24T12:25:11;5.43;;;1.30;;
59555;SDS011;45374;52.746;6.304;2023-04-24T12:27:37;4.22;;;1.15;;
59555;SDS011;45374;52.746;6.304;2023-04-24T12:30:04;2.65;;;1.10;;
59555;SDS011;45374;52.746;6.304;2023-04-24T12:32:30;2.28;;;0.90;;
59555;SDS011;45374;52.746;6.304;2023-04-24T12:34:56;4.03;;;1.20;;
59555;SDS011;45374;52.746;6.304;2023-04-24T12:37:26;2.88;;;1.10;;
59555;SDS011;45374;52.746;6.304;2023-04-24T12:40:07;3.72;;;1.00;;
59555;SDS011;45374;52.746;6.304;2023-04-24T12:42:35;3.45;;;1.33;;
59555;SDS011;45374;52.746;6.304;2023-04-24T12:45:02;9.80;;;1.75;;
59555;SDS011;45374;52.746;6.304;2023-04-24T12:47:31;8.82;;;1.52;;
59555;SDS011;45374;52.746;6.304;2023-04-24T12:49:57;7.35;;;1.75;;
59555;SDS011;45374;52.746;6.304;2023-04-24T12:52:26;5.63;;;1.40;;
59555;SDS011;45374;52.746;6.304;2023-04-24T12:54:53;7.07;;;2.20;;
59555;SDS011;45374;52.746;6.304;2023-04-24T12:57:21;9.43;;;2.60;;
59555;SDS011;45374;52.746;6.304;2023-04-24T12:59:47;13.43;;;3.45;;
59555;SDS011;45374;52.746;6.304;2023-04-24T13:02:12;6.25;;;2.40;;
59555;SDS011;45374;52.746;6.304;2023-04-24T13:04:38;6.60;;;2.13;;
59555;SDS011;45374;52.746;6.304;2023-04-24T13:07:04;6.28;;;1.90;;
59555;SDS011;45374;52.746;6.304;2023-04-24T13:09:30;11.80;;;2.15;;
59555;SDS011;45374;52.746;6.304;2023-04-24T13:11:56;6.22;;;1.90;;
59555;SDS011;45374;52.746;6.304;2023-04-24T13:14:22;10.70;;;1.98;;
59555;SDS011;45374;52.746;6.304;2023-04-24T13:16:48;3.88;;;1.30;;
59555;SDS011;45374;52.746;6.304;2023-04-24T13:19:14;5.80;;;1.20;;
59555;SDS011;45374;52.746;6.304;2023-04-24T13:21:40;7.57;;;1.60;;
59555;SDS011;45374;52.746;6.304;2023-04-24T13:24:05;5.05;;;1.15;;
59555;SDS011;45374;52.746;6.304;2023-04-24T13:26:32;6.25;;;1.50;;
59555;SDS011;45374;52.746;6.304;2023-04-24T13:28:58;6.13;;;1.30;;
59555;SDS011;45374;52.746;6.304;2023-04-24T13:31:23;6.05;;;1.40;;
59555;SDS011;45374;52.746;6.304;2023-04-24T13:33:49;6.30;;;1.45;;
59555;SDS011;45374;52.746;6.304;2023-04-24T13:36:15;4.90;;;1.20;;
59555;SDS011;45374;52.746;6.304;2023-04-24T13:38:42;4.05;;;1.30;;
59555;SDS011;45374;52.746;6.304;2023-04-24T13:41:09;5.15;;;1.50;;
59555;SDS011;45374;52.746;6.304;2023-04-24T13:43:35;8.40;;;2.03;;
59555;SDS011;45374;52.746;6.304;2023-04-24T13:46:01;6.22;;;1.50;;
59555;SDS011;45374;52.746;6.304;2023-04-24T13:48:28;10.15;;;2.15;;
59555;SDS011;45374;52.746;6.304;2023-04-24T13:50:54;6.13;;;2.08;;
59555;SDS011;45374;52.746;6.304;2023-04-24T13:53:20;8.90;;;2.20;;
59555;SDS011;45374;52.746;6.304;2023-04-24T13:55:45;10.25;;;2.88;;
59555;SDS011;45374;52.746;6.304;2023-04-24T13:58:11;12.60;;;2.75;;
59555;SDS011;45374;52.746;6.304;2023-04-24T14:00:36;10.25;;;2.55;;
59555;SDS011;45374;52.746;6.304;2023-04-24T14:03:02;12.63;;;2.70;;
59555;SDS011;45374;52.746;6.304;2023-04-24T14:05:28;14.45;;;3.25;;
59555;SDS011;45374;52.746;6.304;2023-04-24T14:07:54;14.75;;;3.80;;
59555;SDS011;45374;52.746;6.304;2023-04-24T14:10:19;11.48;;;2.28;;
59555;SDS011;45374;52.746;6.304;2023-04-24T14:12:45;13.20;;;3.13;;
59555;SDS011;45374;52.746;6.304;2023-04-24T14:15:10;12.20;;;2.90;;
59555;SDS011;45374;52.746;6.304;2023-04-24T14:17:37;5.63;;;1.90;;
59555;SDS011;45374;52.746;6.304;2023-04-24T14:20:02;6.28;;;2.40;;
59555;SDS011;45374;52.746;6.304;2023-04-24T14:22:29;11.65;;;3.17;;
59555;SDS011;45374;52.746;6.304;2023-04-24T14:24:56;9.27;;;2.60;;
59555;SDS011;45374;52.746;6.304;2023-04-24T14:27:21;13.10;;;3.03;;
59555;SDS011;45374;52.746;6.304;2023-04-24T14:29:47;11.18;;;2.83;;
59555;SDS011;45374;52.746;6.304;2023-04-24T14:32:12;11.18;;;2.58;;
59555;SDS011;45374;52.746;6.304;2023-04-24T14:34:40;13.35;;;3.92;;
59555;SDS011;45374;52.746;6.304;2023-04-24T14:37:05;13.82;;;3.47;;
59555;SDS011;45374;52.746;6.304;2023-04-24T14:39:31;15.25;;;3.42;;
59555;SDS011;45374;52.746;6.304;2023-04-24T14:41:57;10.95;;;2.92;;
59555;SDS011;45374;52.746;6.304;2023-04-24T14:44:22;13.93;;;3.08;;
59555;SDS011;45374;52.746;6.304;2023-04-24T14:46:48;9.65;;;2.42;;
59555;SDS011;45374;52.746;6.304;2023-04-24T14:49:14;12.95;;;2.97;;
59555;SDS011;45374;52.746;6.304;2023-04-24T14:51:40;15.43;;;2.83;;
59555;SDS011;45374;52.746;6.304;2023-04-24T14:54:06;9.93;;;2.92;;
59555;SDS011;45374;52.746;6.304;2023-04-24T14:56:32;15.55;;;2.85;;
59555;SDS011;45374;52.746;6.304;2023-04-24T14:58:57;13.60;;;3.63;;
59555;SDS011;45374;52.746;6.304;2023-04-24T15:01:23;10.77;;;3.15;;
59555;SDS011;45374;52.746;6.304;2023-04-24T15:03:49;14.93;;;3.97;;
59555;SDS011;45374;52.746;6.304;2023-04-24T15:06:15;12.18;;;3.60;;
59555;SDS011;45374;52.746;6.304;2023-04-24T15:08:40;14.60;;;3.58;;